Time;durP1;ratioP1;P1;durP2;ratioP2;P2;SDS_P1;SDS_P2;PMS_P1;PMS_P2;Temp;Humidity;BMP_temperature;BMP_pressure;BME280_temperature;BME280_humidity;BME280_pressure;Samples;Min_cycle;Max_cycle;Signal;HPM_P1;HPM_P2
2022/09/12 00:00:27;;;;;;;;;11.00;10.67;;;;;18.81;64.90;101099.03;5052752;28;45342;-71
2022/09/12 00:03:02;;;;;;;;;14.00;11.67;;;;;18.85;65.06;101106.00;5059744;28;45364;-70
2022/09/12 00:05:40;;;;;;;;;9.67;9.67;;;;;18.87;64.66;101098.88;5058617;28;45566;-70
2022/09/12 00:08:13;;;;;;;;;11.00;11.00;;;;;18.90;64.74;101105.91;5054093;28;46833;-68
2022/09/12 00:11:07;;;;;;;;;11.67;9.33;;;;;18.82;64.51;101095.50;5054236;28;45370;-71
2022/09/12 00:13:36;;;;;;;;;13.33;10.67;;;;;18.86;64.02;101102.44;5054224;28;45923;-69
2022/09/12 00:16:09;;;;;;;;;9.00;9.00;;;;;18.86;64.30;101105.09;5056053;28;45510;-74
2022/09/12 00:18:47;;;;;;;;;11.00;9.33;;;;;18.79;64.50;101084.94;5057474;28;46397;-71
2022/09/12 00:21:30;;;;;;;;;13.33;10.33;;;;;18.76;64.58;101096.50;5059746;28;45569;-70
2022/09/12 00:24:01;;;;;;;;;10.00;8.67;;;;;18.73;64.54;101090.38;5059424;28;45375;-71
2022/09/12 00:26:41;;;;;;;;;10.67;9.67;;;;;18.69;64.56;101078.97;5057963;28;45516;-72
2022/09/12 00:29:17;;;;;;;;;13.33;9.67;;;;;18.57;64.91;101060.72;5059537;28;45517;-74
2022/09/12 00:31:55;;;;;;;;;9.33;9.33;;;;;18.69;64.88;101080.75;5048052;28;45533;-75
2022/09/12 00:34:26;;;;;;;;;10.33;9.33;;;;;18.65;64.93;101075.53;5055328;28;45433;-70
2022/09/12 00:37:01;;;;;;;;;13.67;13.67;;;;;18.61;65.39;101071.22;5050512;28;45497;-71
2022/09/12 00:39:35;;;;;;;;;12.33;10.33;;;;;18.55;65.34;101070.50;5053448;28;45700;-74
2022/09/12 00:42:04;;;;;;;;;11.67;11.67;;;;;18.57;65.43;101072.19;5049730;28;45470;-72
2022/09/12 00:44:35;;;;;;;;;8.33;7.67;;;;;18.60;65.47;101069.47;5052464;28;45402;-71
2022/09/12 00:47:07;;;;;;;;;12.33;10.67;;;;;18.61;65.33;101065.03;5059562;28;45416;-70
2022/09/12 00:49:56;;;;;;;;;10.67;10.67;;;;;18.50;65.34;101044.09;5058341;28;46380;-74
2022/09/12 00:52:35;;;;;;;;;9.67;9.33;;;;;18.52;65.24;101044.91;5041890;28;45540;-70
2022/09/12 00:55:08;;;;;;;;;10.33;9.33;;;;;18.51;65.54;101059.09;5024375;28;45441;-74
2022/09/12 00:57:54;;;;;;;;;10.33;10.33;;;;;18.43;65.84;101037.19;5034858;28;45496;-72
2022/09/12 01:00:23;;;;;;;;;11.67;10.67;;;;;18.52;65.62;101046.72;5034235;28;45393;-77
2022/09/12 01:03:00;;;;;;;;;10.33;9.33;;;;;18.51;65.55;101045.84;5036157;28;46108;-78
2022/09/12 01:05:30;;;;;;;;;11.67;11.67;;;;;18.50;65.93;101040.56;5038667;28;45478;-77
2022/09/12 01:08:06;;;;;;;;;10.67;10.00;;;;;18.44;65.96;101039.81;5038642;28;45347;-76
2022/09/12 01:10:42;;;;;;;;;12.33;10.67;;;;;18.47;65.66;101038.00;5035044;28;45395;-74
2022/09/12 01:13:13;;;;;;;;;13.33;12.00;;;;;18.50;65.71;101048.53;5053314;28;45479;-73
2022/09/12 01:15:53;;;;;;;;;12.67;10.00;;;;;18.51;65.34;101043.19;5055444;28;45677;-76
2022/09/12 01:18:30;;;;;;;;;9.33;9.00;;;;;18.52;65.72;101044.91;5044777;28;45610;-69
2022/09/12 01:21:20;;;;;;;;;12.67;10.00;;;;;18.46;65.82;101049.50;5042569;28;46502;-69
2022/09/12 01:24:14;;;;;;;;;14.00;13.00;;;;;18.37;65.93;101045.34;5032254;28;45537;-71
2022/09/12 01:26:53;;;;;;;;;14.33;10.33;;;;;18.41;65.69;101042.56;5034575;28;45305;-70
2022/09/12 01:29:22;;;;;;;;;15.33;13.00;;;;;18.35;65.80;101037.41;5042911;28;45505;-69
2022/09/12 01:32:06;;;;;;;;;10.67;10.33;;;;;18.30;65.96;101031.34;5048635;28;46720;-71
2022/09/12 01:34:43;;;;;;;;;15.00;10.33;;;;;18.37;65.58;101032.94;5037469;28;45887;-69
2022/09/12 01:37:36;;;;;;;;;12.00;12.00;;;;;18.30;66.13;101023.41;5042410;28;45496;-70
2022/09/12 01:40:15;;;;;;;;;15.00;15.00;;;;;18.26;66.12;101021.72;5051229;28;45450;-70
2022/09/12 01:43:11;;;;;;;;;17.00;14.00;;;;;18.15;66.43;101016.72;5036131;28;46987;-75
2022/09/12 01:45:55;;;;;;;;;13.67;11.33;;;;;18.18;66.14;101016.63;5033960;28;45545;-69
2022/09/12 01:48:31;;;;;;;;;11.67;10.33;;;;;18.19;66.31;101013.03;5036027;28;45454;-70
2022/09/12 01:51:46;;;;;;;;;13.00;10.67;;;;;18.17;66.43;101021.94;5045137;28;45545;-70
2022/09/12 01:54:26;;;;;;;;;13.33;11.67;;;;;18.11;66.18;101011.53;5056501;28;45783;-75
2022/09/12 01:56:55;;;;;;;;;15.33;13.67;;;;;18.04;66.62;101000.19;5053325;28;45484;-69
2022/09/12 01:59:28;;;;;;;;;12.00;10.33;;;;;18.18;66.15;101023.72;5053081;28;45413;-68
2022/09/12 02:02:20;;;;;;;;;15.33;12.33;;;;;18.18;66.45;101021.06;5052784;28;45609;-73
2022/09/12 02:05:01;;;;;;;;;10.33;9.67;;;;;18.15;66.33;101010.50;5056585;28;46319;-70
2022/09/12 02:07:36;;;;;;;;;10.33;9.33;;;;;18.21;65.91;101018.31;5052953;28;45486;-69
2022/09/12 02:10:29;;;;;;;;;12.33;12.00;;;;;18.14;66.28;101014.94;5049724;28;45504;-70
2022/09/12 02:13:06;;;;;;;;;9.67;9.67;;;;;18.12;66.35;101005.28;5052680;28;45586;-71
2022/09/12 02:15:37;;;;;;;;;11.00;11.00;;;;;17.86;66.34;100952.94;5051422;28;47054;-69
2022/09/12 02:18:05;;;;;;;;;14.33;11.33;;;;;18.09;66.44;100995.66;5049288;28;45339;-70
2022/09/12 02:20:37;;;;;;;;;11.67;10.33;;;;;18.14;66.55;101016.75;5052273;28;45386;-73
2022/09/12 02:23:08;;;;;;;;;13.67;10.67;;;;;18.04;66.49;100989.59;5054044;28;45921;-75
2022/09/12 02:25:38;;;;;;;;;10.00;10.00;;;;;18.09;66.43;100995.66;5059337;28;45884;-76
2022/09/12 02:28:12;;;;;;;;;2.00;2.00;;;;;18.13;66.79;100999.09;5057832;28;45622;-69
2022/09/12 02:30:59;;;;;;;;;17.33;11.67;;;;;18.00;66.48;100983.47;5053544;28;45613;-70
2022/09/12 02:33:45;;;;;;;;;9.00;9.00;;;;;18.19;66.30;100994.50;5069551;27;45736;-68
2022/09/12 02:36:13;;;;;;;;;11.00;9.00;;;;;18.26;66.09;100989.03;5054806;28;46078;-68
2022/09/12 02:38:47;;;;;;;;;12.00;11.33;;;;;18.26;65.78;100997.00;5056689;28;45421;-70
2022/09/12 02:41:16;;;;;;;;;8.67;8.67;;;;;18.12;66.21;100977.00;5058141;28;45721;-71
2022/09/12 02:43:42;;;;;;;;;12.67;11.67;;;;;18.14;66.32;100988.44;5054424;28;45625;-69
2022/09/12 02:46:12;;;;;;;;;12.67;10.67;;;;;18.11;66.64;100987.66;5050240;28;45523;-70
2022/09/12 02:48:41;;;;;;;;;10.00;8.67;;;;;17.98;66.36;100952.63;5059794;28;45531;-72
2022/09/12 02:51:10;;;;;;;;;14.67;11.00;;;;;18.08;66.17;100963.88;5060022;28;45380;-75
2022/09/12 02:53:37;;;;;;;;;12.67;12.67;;;;;18.13;66.96;100970.81;5058181;28;45420;-69
2022/09/12 02:56:08;;;;;;;;;11.00;11.00;;;;;18.06;66.42;100961.28;5057184;28;45298;-69
2022/09/12 02:58:34;;;;;;;;;10.33;10.33;;;;;18.10;66.28;100962.91;5058534;28;45505;-76
2022/09/12 03:01:34;;;;;;;;;10.33;9.33;;;;;18.07;66.41;100954.19;5058197;28;45420;-77
2022/09/12 03:04:13;;;;;;;;;11.67;10.00;;;;;18.17;66.11;100968.94;5058603;28;45340;-73
2022/09/12 03:06:57;;;;;;;;;10.00;9.33;;;;;18.12;66.65;100958.44;5058550;28;45500;-73
2022/09/12 03:09:53;;;;;;;;;13.33;10.33;;;;;18.07;66.71;100963.00;5056575;28;45780;-72
2022/09/12 03:12:43;;;;;;;;;11.67;10.00;;;;;18.12;66.88;100957.59;5058858;28;45848;-76
2022/09/12 03:15:26;;;;;;;;;11.00;11.00;;;;;18.02;66.83;100956.94;5056216;28;45492;-71
2022/09/12 03:17:57;;;;;;;;;10.33;10.33;;;;;17.97;67.23;100956.19;5056770;28;47984;-73
2022/09/12 03:20:50;;;;;;;;;12.33;9.00;;;;;18.00;66.86;100959.63;5060592;28;45470;-71
2022/09/12 03:23:18;;;;;;;;;10.33;9.33;;;;;18.04;67.03;100944.53;5060736;28;45467;-71
2022/09/12 03:26:05;;;;;;;;;11.33;7.00;;;;;18.05;66.84;100946.25;5057075;28;45389;-70
2022/09/12 03:28:33;;;;;;;;;11.33;8.33;;;;;18.03;66.78;100945.44;5051256;28;48143;-71
2022/09/12 03:30:59;;;;;;;;;10.67;10.33;;;;;18.04;66.61;100941.03;5039670;28;45530;-75
2022/09/12 03:33:25;;;;;;;;;10.33;9.67;;;;;17.87;67.05;100937.00;5055097;28;45378;-75
2022/09/12 03:35:52;;;;;;;;;14.67;9.33;;;;;17.83;67.53;100943.28;5056568;28;45354;-70
2022/09/12 03:38:18;;;;;;;;;13.67;12.00;;;;;17.72;67.21;100927.59;5054453;28;48228;-70
2022/09/12 03:40:45;;;;;;;;;9.00;9.00;;;;;17.81;67.35;100934.50;5056094;28;45538;-72
2022/09/12 03:43:11;;;;;;;;;8.67;8.67;;;;;17.76;67.55;100937.22;5054579;28;46371;-75
2022/09/12 03:45:37;;;;;;;;;10.00;10.00;;;;;17.68;67.39;100928.63;5042580;28;45298;-69
2022/09/12 03:48:05;;;;;;;;;12.00;11.33;;;;;17.70;67.88;100942.69;5058372;28;45616;-69
2022/09/12 03:50:30;;;;;;;;;7.00;7.00;;;;;17.64;68.03;100923.44;5058407;28;45407;-74
2022/09/12 03:52:59;;;;;;;;;11.33;11.33;;;;;17.73;67.66;100934.66;5054833;28;45456;-72
2022/09/12 03:55:25;;;;;;;;;10.00;10.00;;;;;17.74;67.62;100938.19;5055534;28;45402;-74
2022/09/12 03:57:53;;;;;;;;;9.67;7.67;;;;;17.75;67.62;100934.66;5056336;28;45575;-68
2022/09/12 04:00:18;;;;;;;;;8.33;6.33;;;;;17.68;67.48;100917.16;5054770;28;45430;-70
2022/09/12 04:02:44;;;;;;;;;9.33;8.00;;;;;17.67;67.99;100916.25;5055768;28;45530;-73
2022/09/12 04:05:09;;;;;;;;;8.33;8.33;;;;;17.66;67.76;100918.97;5056233;28;45465;-74
2022/09/12 04:07:35;;;;;;;;;10.33;9.00;;;;;17.63;67.66;100911.97;5054737;28;46535;-69
2022/09/12 04:10:00;;;;;;;;;9.33;9.33;;;;;17.58;67.57;100906.78;5056480;28;45380;-71
2022/09/12 04:12:27;;;;;;;;;10.00;7.67;;;;;17.78;67.59;100943.38;5054701;28;46224;-71
2022/09/12 04:14:53;;;;;;;;;10.67;9.00;;;;;17.64;67.18;100916.34;5036602;28;45725;-70
2022/09/12 04:17:18;;;;;;;;;8.00;7.67;;;;;17.76;67.52;100941.66;5043995;28;46134;-68
2022/09/12 04:19:44;;;;;;;;;9.00;9.00;;;;;17.77;67.35;100940.75;5054005;28;45538;-69
2022/09/12 04:22:10;;;;;;;;;11.67;9.00;;;;;17.79;67.51;100952.19;5037362;28;45524;-71
2022/09/12 04:24:35;;;;;;;;;9.00;9.00;;;;;17.71;67.37;100938.25;5042126;28;45248;-74
2022/09/12 04:27:01;;;;;;;;;10.00;9.00;;;;;17.79;67.20;100953.03;5034127;28;48093;-71
2022/09/12 04:29:28;;;;;;;;;13.33;12.00;;;;;17.74;67.39;100946.13;5036472;28;45526;-77
2022/09/12 04:31:53;;;;;;;;;9.00;7.67;;;;;17.77;67.22;100956.63;5039253;28;45801;-69
2022/09/12 04:34:19;;;;;;;;;8.67;7.67;;;;;17.78;67.06;100951.31;5033531;28;45834;-70
2022/09/12 04:36:45;;;;;;;;;7.67;7.67;;;;;17.74;67.41;100949.63;5034554;28;47885;-69
2022/09/12 04:39:11;;;;;;;;;9.00;7.33;;;;;17.66;67.13;100933.06;5035034;28;45611;-71
2022/09/12 04:41:40;;;;;;;;;8.67;8.33;;;;;17.68;67.28;100936.56;5052121;28;45445;-78
2022/09/12 04:44:11;;;;;;;;;8.00;7.67;;;;;17.68;67.52;100944.50;5045559;28;45287;-75
2022/09/12 04:46:40;;;;;;;;;7.33;7.00;;;;;17.67;67.35;100944.53;5053680;28;46089;-76
2022/09/12 04:49:06;;;;;;;;;9.67;7.33;;;;;17.65;67.67;100931.31;5058573;28;45495;-79
2022/09/12 04:51:34;;;;;;;;;11.33;9.33;;;;;17.68;67.82;100939.22;5056301;28;45689;-75
2022/09/12 04:54:03;;;;;;;;;10.33;10.00;;;;;17.72;67.60;100937.34;5056582;28;45394;-74
2022/09/12 04:56:29;;;;;;;;;10.33;9.33;;;;;17.63;67.78;100927.88;5056919;28;45387;-76
2022/09/12 04:59:00;;;;;;;;;10.33;9.67;;;;;17.48;67.87;100905.25;5056501;28;45480;-69
2022/09/12 05:01:27;;;;;;;;;11.33;9.33;;;;;17.55;67.90;100922.72;5055794;28;45311;-71
2022/09/12 05:03:54;;;;;;;;;11.33;10.67;;;;;17.52;68.43;100928.09;5059253;28;45370;-72
2022/09/12 05:06:25;;;;;;;;;13.00;9.33;;;;;17.46;68.34;100925.59;5057766;28;47090;-71
2022/09/12 05:08:52;;;;;;;;;12.33;12.00;;;;;17.40;68.58;100919.59;5058793;28;45275;-73
2022/09/12 05:11:22;;;;;;;;;14.67;12.33;;;;;17.48;68.73;100920.25;5054894;28;45337;-73
2022/09/12 05:13:48;;;;;;;;;14.00;12.00;;;;;17.58;68.24;100924.44;5054471;28;46026;-70
2022/09/12 05:16:16;;;;;;;;;16.00;13.00;;;;;17.59;67.99;100924.41;5053863;28;45958;-68
2022/09/12 05:18:43;;;;;;;;;17.00;15.33;;;;;17.42;68.29;100902.75;5053959;28;45499;-71
2022/09/12 05:21:13;;;;;;;;;11.67;11.67;;;;;17.48;68.43;100921.13;5057175;28;45494;-75
2022/09/12 05:23:38;;;;;;;;;16.00;12.67;;;;;17.28;68.92;100902.22;5057232;28;45517;-72
2022/09/12 05:26:06;;;;;;;;;14.33;12.33;;;;;17.36;68.87;100921.41;5056206;28;46838;-72
2022/09/12 05:28:35;;;;;;;;;13.67;12.33;;;;;17.35;68.31;100914.41;5054378;28;45691;-73
2022/09/12 05:31:10;;;;;;;;;13.00;10.67;;;;;17.35;68.50;100909.09;5045013;28;45385;-73
2022/09/12 05:33:37;;;;;;;;;14.67;12.67;;;;;17.29;68.82;100911.88;5053768;28;45507;-69
2022/09/12 05:36:06;;;;;;;;;18.00;15.33;;;;;17.26;69.01;100906.66;5053220;28;45533;-70
2022/09/12 05:38:35;;;;;;;;;16.33;12.00;;;;;17.26;68.95;100901.38;5052418;28;45615;-73
2022/09/12 05:41:06;;;;;;;;;11.67;10.33;;;;;17.38;68.59;100917.84;5053994;28;45490;-73
2022/09/12 05:43:36;;;;;;;;;11.00;9.33;;;;;17.44;68.74;100915.94;5052591;28;45459;-76
2022/09/12 05:46:07;;;;;;;;;11.00;11.00;;;;;17.51;68.64;100920.19;5052923;28;45799;-73
2022/09/12 05:48:36;;;;;;;;;12.67;10.00;;;;;17.42;68.34;100900.13;5057155;28;45473;-73
2022/09/12 05:51:09;;;;;;;;;14.33;9.67;;;;;17.49;68.13;100903.50;5055031;28;45294;-74
2022/09/12 05:53:36;;;;;;;;;13.33;10.33;;;;;17.72;67.97;100930.25;5054612;28;45484;-69
2022/09/12 05:56:12;;;;;;;;;11.67;11.67;;;;;17.82;67.37;100924.78;5053799;28;47010;-70
2022/09/12 05:58:41;;;;;;;;;12.33;11.00;;;;;17.91;67.14;100932.50;5055445;28;45349;-71
2022/09/12 06:01:10;;;;;;;;;13.00;9.00;;;;;18.01;66.40;100911.03;5054975;28;45623;-71
2022/09/12 06:03:44;;;;;;;;;19.67;14.00;;;;;18.31;65.42;100927.03;5053850;28;45563;-69
2022/09/12 06:06:12;;;;;;;;;12.00;11.33;;;;;18.34;65.00;100920.75;5055901;28;46516;-70
2022/09/12 06:08:39;;;;;;;;;13.33;12.67;;;;;18.32;65.26;100925.22;5058048;28;45338;-69
2022/09/12 06:11:06;;;;;;;;;10.00;9.00;;;;;18.24;65.46;100928.09;5054430;28;45394;-68
2022/09/12 06:13:35;;;;;;;;;11.67;10.33;;;;;18.15;65.51;100901.81;5053990;28;45509;-70
2022/09/12 06:16:07;;;;;;;;;15.33;13.00;;;;;18.17;65.83;100902.66;5054808;28;46177;-72
2022/09/12 06:18:34;;;;;;;;;17.00;14.67;;;;;18.17;65.40;100900.88;5056342;28;45593;-68
2022/09/12 06:21:11;;;;;;;;;14.33;12.67;;;;;18.40;64.86;100908.22;5055454;28;45912;-71
2022/09/12 06:23:39;;;;;;;;;15.33;12.33;;;;;18.43;64.13;100915.22;5055750;28;45787;-69
2022/09/12 06:26:06;;;;;;;;;15.33;13.67;;;;;18.52;64.14;100912.31;5054900;28;46107;-69
2022/09/12 06:28:34;;;;;;;;;10.00;9.33;;;;;18.62;64.10;100904.94;5044960;28;45458;-69
2022/09/12 06:31:03;;;;;;;;;11.67;11.67;;;;;18.76;63.69;100926.69;5042294;28;46206;-72
2022/09/12 06:33:33;;;;;;;;;14.67;10.67;;;;;18.72;63.46;100910.84;5056041;28;45740;-74
2022/09/12 06:36:10;;;;;;;;;14.67;11.00;;;;;18.80;63.56;100930.13;5048505;28;46335;-78
2022/09/12 06:38:37;;;;;;;;;12.67;12.67;;;;;18.74;63.27;100917.00;5039291;28;45486;-73
2022/09/12 06:41:05;;;;;;;;;16.33;12.33;;;;;18.83;63.44;100930.91;5033787;28;45601;-72
2022/09/12 06:43:31;;;;;;;;;14.33;12.00;;;;;18.85;63.09;100931.72;5034477;28;45490;-71
2022/09/12 06:45:57;;;;;;;;;11.33;8.67;;;;;18.88;63.18;100938.72;5053613;28;45479;-74
2022/09/12 06:48:23;;;;;;;;;10.33;10.33;;;;;18.75;63.12;100919.63;5058674;28;45336;-72
2022/09/12 06:51:00;;;;;;;;;9.00;8.00;;;;;18.75;62.78;100922.28;5055164;28;45425;-70
2022/09/12 06:53:26;;;;;;;;;9.33;9.33;;;;;18.85;62.92;100933.50;5042063;28;45429;-73
2022/09/12 06:56:00;;;;;;;;;9.00;9.00;;;;;18.94;62.46;100938.56;5049168;28;45374;-73
2022/09/12 06:58:27;;;;;;;;;13.00;9.33;;;;;18.83;62.66;100899.06;5053683;28;45582;-75
2022/09/12 07:01:01;;;;;;;;;9.33;9.33;;;;;19.12;61.51;100904.41;5052532;28;45917;-71
2022/09/12 07:03:26;;;;;;;;;13.33;11.67;;;;;19.13;61.53;100900.84;5052123;28;45363;-74
2022/09/12 07:05:52;;;;;;;;;11.00;8.33;;;;;19.37;61.39;100916.00;5052268;28;47101;-73
2022/09/12 07:08:17;;;;;;;;;9.33;9.33;;;;;19.54;61.02;100925.22;5048080;28;45322;-73
2022/09/12 07:10:44;;;;;;;;;10.00;7.67;;;;;19.61;60.58;100927.63;5060465;28;45409;-76
2022/09/12 07:13:10;;;;;;;;;13.33;10.33;;;;;19.61;60.60;100918.78;5059831;28;45287;-69
2022/09/12 07:15:35;;;;;;;;;8.33;8.33;;;;;19.62;60.71;100923.16;5057185;28;47614;-74
2022/09/12 07:18:01;;;;;;;;;8.33;8.33;;;;;19.80;60.62;100927.06;5060080;28;45350;-74
2022/09/12 07:20:27;;;;;;;;;7.67;7.67;;;;;19.95;60.01;100926.53;5056861;28;45458;-70
2022/09/12 07:22:53;;;;;;;;;8.00;8.00;;;;;20.11;59.71;100927.75;5056388;28;45816;-74
2022/09/12 07:25:19;;;;;;;;;10.67;8.33;;;;;20.22;59.21;100924.72;5056380;28;45886;-70
2022/09/12 07:27:45;;;;;;;;;9.00;9.00;;;;;20.18;59.21;100907.13;5056448;28;45569;-70
2022/09/12 07:30:11;;;;;;;;;12.67;10.33;;;;;20.23;58.99;100915.81;5053267;28;45814;-71
2022/09/12 07:32:38;;;;;;;;;8.67;8.67;;;;;20.19;58.82;100914.19;5051047;28;45460;-71
2022/09/12 07:35:04;;;;;;;;;12.67;11.33;;;;;19.98;59.14;100899.88;5036374;28;45531;-74
2022/09/12 07:37:31;;;;;;;;;14.00;12.67;;;;;19.99;59.49;100906.91;5040406;28;45427;-72
2022/09/12 07:39:56;;;;;;;;;10.00;10.00;;;;;20.13;59.08;100919.72;5039407;28;45358;-76
2022/09/12 07:42:22;;;;;;;;;9.33;6.00;;;;;20.16;58.20;100924.06;5036691;28;45393;-69
2022/09/12 07:44:47;;;;;;;;;12.67;11.33;;;;;20.22;58.08;100929.19;5038270;28;46275;-74
2022/09/12 07:47:14;;;;;;;;;9.33;9.00;;;;;20.11;58.53;100916.25;5053603;28;45590;-74
2022/09/12 07:49:41;;;;;;;;;11.33;10.33;;;;;20.05;58.71;100916.44;5055546;28;45519;-75
2022/09/12 07:52:08;;;;;;;;;10.33;10.00;;;;;19.96;58.70;100917.66;5056861;28;45349;-72
2022/09/12 07:54:34;;;;;;;;;11.00;10.33;;;;;19.87;59.21;100905.53;5060654;28;46113;-75
2022/09/12 07:57:00;;;;;;;;;14.67;10.00;;;;;20.05;59.05;100920.00;5059377;28;45288;-77
2022/09/12 07:59:26;;;;;;;;;7.67;7.67;;;;;20.20;59.18;100921.25;5055880;28;45487;-70
2022/09/12 08:01:51;;;;;;;;;10.67;10.67;;;;;20.33;58.27;100922.56;5056496;28;45450;-73
2022/09/12 08:04:17;;;;;;;;;11.33;11.33;;;;;20.29;57.91;100904.13;5055927;28;45471;-72
2022/09/12 08:06:42;;;;;;;;;11.67;10.67;;;;;20.38;58.09;100889.59;5058032;28;45447;-71
2022/09/12 08:09:08;;;;;;;;;9.00;8.33;;;;;20.62;57.60;100918.00;5055716;28;45413;-69
2022/09/12 08:11:34;;;;;;;;;13.33;11.33;;;;;20.71;57.46;100920.31;5056979;28;45531;-70
2022/09/12 08:14:01;;;;;;;;;11.67;11.67;;;;;20.74;57.26;100917.56;5054833;28;47715;-73
2022/09/12 08:16:29;;;;;;;;;12.33;10.67;;;;;20.79;56.62;100917.38;5041107;28;45232;-72
2022/09/12 08:18:56;;;;;;;;;11.33;10.67;;;;;20.75;57.09;100916.63;5040055;28;45539;-69
2022/09/12 08:21:33;;;;;;;;;12.33;12.00;;;;;20.84;57.40;100918.06;5035803;28;46350;-72
2022/09/12 08:24:02;;;;;;;;;14.00;12.33;;;;;20.98;56.69;100917.56;5035405;28;46305;-70
2022/09/12 08:26:30;;;;;;;;;12.00;8.67;;;;;21.11;56.46;100910.81;5037452;28;45941;-71
2022/09/12 08:28:55;;;;;;;;;16.00;12.33;;;;;21.17;56.12;100912.38;5049360;28;45893;-72
2022/09/12 08:31:23;;;;;;;;;9.67;9.33;;;;;21.21;56.25;100903.31;5043635;28;45677;-69
2022/09/12 08:33:50;;;;;;;;;12.00;10.67;;;;;21.28;55.47;100909.28;5035382;28;45628;-71
2022/09/12 08:36:21;;;;;;;;;12.00;11.33;;;;;21.32;55.97;100906.44;5035804;28;45535;-70
2022/09/12 08:38:49;;;;;;;;;13.67;12.67;;;;;21.38;55.68;100913.34;5038687;28;45412;-69
2022/09/12 08:41:18;;;;;;;;;14.33;14.00;;;;;21.29;55.30;100908.38;5044885;28;45532;-71
2022/09/12 08:44:17;;;;;;;;;11.00;11.00;;;;;21.15;56.03;100912.44;5037414;28;45458;-76
2022/09/12 08:47:04;;;;;;;;;14.33;14.33;;;;;21.23;55.79;100909.47;5051879;28;45507;-75
2022/09/12 08:49:36;;;;;;;;;12.33;12.33;;;;;21.20;55.43;100890.94;5056571;28;45836;-77
2022/09/12 08:52:10;;;;;;;;;14.67;12.67;;;;;21.29;55.63;100900.38;5056840;28;45398;-68
2022/09/12 08:54:43;;;;;;;;;10.67;9.67;;;;;21.57;56.24;100910.81;5057255;28;46674;-72
2022/09/12 08:57:13;;;;;;;;;7.67;6.67;;;;;21.77;55.71;100920.66;5054795;28;45432;-68
2022/09/12 08:59:43;;;;;;;;;13.00;10.00;;;;;21.80;54.69;100905.38;5055061;28;45839;-70
2022/09/12 09:02:37;;;;;;;;;10.67;8.33;;;;;22.02;54.19;100902.69;5054740;28;45433;-70
2022/09/12 09:05:44;;;;;;;;;8.00;8.00;;;;;22.08;54.08;100911.34;5060493;28;45624;-69
2022/09/12 09:08:45;;;;;;;;;9.67;9.00;;;;;22.26;54.84;100909.69;5020968;28;45470;-68
2022/09/12 09:11:59;;;;;;;;;8.00;8.00;;;;;22.47;54.43;100898.09;5050096;28;45477;-71
2022/09/12 09:14:50;;;;;;;;;8.33;8.33;;;;;22.69;54.21;100903.31;5056230;28;45482;-69
2022/09/12 09:17:43;;;;;;;;;8.33;8.00;;;;;22.80;52.53;100893.03;5041320;28;45355;-75
2022/09/12 09:20:29;;;;;;;;;8.33;8.33;;;;;22.91;51.91;100894.31;5046122;28;45449;-73
2022/09/12 09:23:06;;;;;;;;;12.33;10.67;;;;;22.94;51.66;100875.47;5034713;28;45397;-70
2022/09/12 09:26:06;;;;;;;;;11.33;9.67;;;;;22.98;51.39;100866.38;5036870;28;45526;-70
2022/09/12 09:28:45;;;;;;;;;9.00;8.00;;;;;23.00;51.78;100876.06;5046187;28;45552;-71
2022/09/12 09:31:14;;;;;;;;;7.33;7.00;;;;;23.11;51.54;100880.88;5046301;28;45411;-71
2022/09/12 09:33:41;;;;;;;;;9.67;9.00;;;;;23.15;51.42;100871.78;5063691;28;45570;-72
2022/09/12 09:36:50;;;;;;;;;9.33;8.33;;;;;23.07;52.30;100837.44;5038837;28;45654;-71
2022/09/12 09:40:07;;;;;;;;;5.00;5.00;;;;;23.55;52.32;100877.00;5040467;28;45673;-71
2022/09/12 09:43:01;;;;;;;;;5.67;5.67;;;;;23.69;51.68;100856.63;5031958;28;45588;-71
2022/09/12 09:45:28;;;;;;;;;6.67;4.67;;;;;23.94;50.45;100866.09;5039539;28;45422;-72
2022/09/12 09:48:02;;;;;;;;;7.67;6.67;;;;;24.14;49.70;100873.09;5053561;28;45679;-74
2022/09/12 09:50:27;;;;;;;;;6.67;6.67;;;;;;;;5053167;28;45481;-69
2022/09/12 09:52:56;;;;;;;;;6.00;6.00;;;;;24.48;49.75;100863.31;5051167;28;45404;-76
2022/09/12 09:55:29;;;;;;;;;7.33;6.33;;;;;24.58;47.79;100861.00;5054789;28;45486;-78
2022/09/12 09:57:55;;;;;;;;;9.67;8.00;;;;;24.42;48.34;100867.16;5052029;28;45367;-74
2022/09/12 10:00:30;;;;;;;;;7.67;7.00;;;;;24.42;48.33;100860.94;5052138;28;46857;-75
2022/09/12 10:03:14;;;;;;;;;5.00;4.33;;;;;24.34;47.80;100854.19;5039272;28;45604;-71
2022/09/12 10:05:47;;;;;;;;;5.00;5.00;;;;;24.41;47.94;100854.72;5037556;28;45520;-82
2022/09/12 10:08:31;;;;;;;;;5.67;4.67;;;;;24.51;47.44;100849.75;5051583;28;45868;-68
2022/09/12 10:11:17;;;;;;;;;5.00;5.00;;;;;24.62;46.16;100858.06;5047152;28;45773;-73
2022/09/12 10:13:59;;;;;;;;;5.00;5.00;;;;;24.60;45.30;100843.03;5038287;28;45497;-69
2022/09/12 10:16:33;;;;;;;;;7.33;5.00;;;;;24.46;45.58;100839.28;5048794;28;45415;-70
2022/09/12 10:19:03;;;;;;;;;6.00;6.00;;;;;24.49;46.06;100833.78;5042892;28;45489;-69
2022/09/12 10:22:02;;;;;;;;;6.67;5.00;;;;;24.59;45.79;100833.28;5039305;28;45966;-68
2022/09/12 10:24:41;;;;;;;;;4.00;4.00;;;;;24.73;45.54;100820.00;5031435;28;45813;-70
2022/09/12 10:27:12;;;;;;;;;5.00;4.00;;;;;24.94;44.93;100826.81;5035715;28;45186;-69
2022/09/12 10:29:47;;;;;;;;;6.00;4.50;;;;;25.06;44.49;100811.00;5039444;28;45913;-69
2022/09/12 10:32:37;;;;;;;;;5.00;5.00;;;;;25.34;44.60;100827.25;5038937;28;46087;-68
2022/09/12 10:35:29;;;;;;;;;6.00;6.00;;;;;25.35;44.27;100820.91;5035216;28;45465;-70
2022/09/12 10:38:03;;;;;;;;;3.67;3.67;;;;;25.51;44.36;100830.75;5047701;28;45447;-68
2022/09/12 10:40:39;;;;;;;;;5.00;3.25;;;;;25.64;44.03;100799.56;5035268;28;45474;-73
2022/09/12 10:43:29;;;;;;;;;4.75;4.00;;;;;26.00;43.04;100823.31;5038238;28;46460;-73
2022/09/12 10:46:18;;;;;;;;;6.00;5.25;;;;;26.00;43.49;100825.13;5056401;28;45595;-80
2022/09/12 10:49:10;;;;;;;;;0.50;0.50;;;;;26.08;42.55;100816.59;5049508;28;45530;-69
2022/09/12 10:51:36;;;;;;;;;6.75;6.00;;;;;26.08;42.27;100820.19;5051282;28;45529;-67
2022/09/12 10:54:06;;;;;;;;;3.00;3.00;;;;;26.19;42.53;100812.31;5055426;28;45634;-71
2022/09/12 10:56:58;;;;;;;;;5.75;5.50;;;;;26.31;42.67;100810.66;5048933;28;45823;-68
2022/09/12 10:59:27;;;;;;;;;4.00;4.00;;;;;26.33;41.50;100807.91;5046914;28;45576;-67
2022/09/12 11:02:00;;;;;;;;;4.75;4.75;;;;;26.32;42.06;100800.81;5061227;28;45599;-67
2022/09/12 11:04:54;;;;;;;;;3.00;2.50;;;;;26.74;42.18;100801.75;5053004;28;45557;-68
2022/09/12 11:07:44;;;;;;;;;4.00;4.00;;;;;26.94;40.48;100797.78;5052321;28;45465;-67
2022/09/12 11:10:25;;;;;;;;;3.00;3.00;;;;;27.18;40.29;100806.03;5055977;28;45552;-73
2022/09/12 11:13:23;;;;;;;;;3.00;3.00;;;;;27.21;39.84;100800.47;5053582;28;45587;-69
2022/09/12 11:16:22;;;;;;;;;2.00;2.00;;;;;27.23;39.64;100806.63;5045981;28;45580;-68
2022/09/12 11:19:12;;;;;;;;;3.00;3.00;;;;;27.47;39.78;100812.16;5044391;28;45526;-69
2022/09/12 11:21:46;;;;;;;;;3.00;3.00;;;;;27.76;39.34;100809.31;5048096;28;45467;-67
2022/09/12 11:24:38;;;;;;;;;3.00;3.00;;;;;27.99;39.24;100805.94;5053709;28;45338;-75
2022/09/12 11:27:33;;;;;;;;;3.50;3.00;;;;;28.09;38.10;100779.22;5033315;28;46500;-69
2022/09/12 11:30:06;;;;;;;;;3.00;3.00;;;;;28.09;38.43;100798.91;5051621;28;45774;-71
2022/09/12 11:33:04;;;;;;;;;3.25;3.25;;;;;28.39;38.37;100802.25;5056003;28;45615;-66
2022/09/12 11:35:38;;;;;;;;;3.50;3.50;;;;;29.05;37.17;100786.66;5054063;28;45306;-67
2022/09/12 11:38:34;;;;;;;;;4.00;4.00;;;;;30.20;35.51;100773.25;5046682;28;45656;-69
2022/09/12 11:41:04;;;;;;;;;2.00;2.00;;;;;31.60;31.93;100760.88;5042290;28;45568;-71
2022/09/12 11:44:02;;;;;;;;;2.40;2.40;;;;;33.97;30.44;100762.81;5057159;28;45507;-74
2022/09/12 11:46:35;;;;;;;;;3.00;2.60;;;;;35.22;27.37;100766.88;5049843;28;45783;-68
2022/09/12 11:49:06;;;;;;;;;3.80;3.80;;;;;36.18;25.47;100766.91;5062348;28;46175;-67